Time;durP1;ratioP1;P1;durP2;ratioP2;P2;SDS_P1;SDS_P2;PMS_P1;PMS_P2;Temp;Humidity;BMP_temperature;BMP_pressure;BME280_temperature;BME280_humidity;BME280_pressure;Samples;Min_cycle;Max_cycle;Signal;HPM_P1;HPM_P2
2022/04/05 00:02:22;;;;;;;10.85;4.82;;;;;;;6.49;57.13;93696.63;5102526;28;20359;-73
2022/04/05 00:04:47;;;;;;;7.35;4.45;;;;;;;6.48;57.33;93704.88;5102523;28;20079;-72
2022/04/05 00:07:13;;;;;;;12.50;5.63;;;;;;;6.45;57.75;93708.09;5102426;28;20028;-73
2022/04/05 00:09:38;;;;;;;8.82;5.13;;;;;;;6.41;57.44;93705.22;5102836;28;20020;-73
2022/04/05 00:12:04;;;;;;;11.32;5.47;;;;;;;6.35;57.75;93693.97;5102738;28;20258;-73
2022/04/05 00:14:30;;;;;;;11.90;5.30;;;;;;;6.33;57.84;93695.31;5102337;28;20028;-72
2022/04/05 00:16:55;;;;;;;8.77;5.20;;;;;;;6.31;57.86;93687.66;5102459;28;20024;-72
2022/04/05 00:19:22;;;;;;;10.60;5.65;;;;;;;6.28;58.00;93690.09;5102424;28;20130;-72
2022/04/05 00:21:48;;;;;;;11.13;5.15;;;;;;;6.27;58.13;93696.47;5102294;28;20314;-73
2022/04/05 00:24:15;;;;;;;12.77;5.43;;;;;;;6.21;57.91;93690.47;5102247;28;20039;-73
2022/04/05 00:26:40;;;;;;;12.32;5.85;;;;;;;6.19;58.55;93693.41;5102323;28;20222;-72
2022/04/05 00:29:06;;;;;;;14.20;5.78;;;;;;;6.16;58.93;93699.25;5102399;28;20024;-72
2022/04/05 00:31:31;;;;;;;8.50;5.07;;;;;;;6.14;58.84;93690.84;5102282;28;20028;-72
2022/04/05 00:33:57;;;;;;;11.98;4.78;;;;;;;6.08;58.85;93697.28;5102943;28;20027;-72
2022/04/05 00:36:22;;;;;;;13.48;5.38;;;;;;;6.05;58.83;93692.56;5105805;28;20034;-73
2022/04/05 00:38:48;;;;;;;10.98;5.57;;;;;;;6.02;58.82;93695.78;5105867;28;20337;-73
2022/04/05 00:41:13;;;;;;;11.50;6.15;;;;;;;5.97;59.08;93686.06;5105803;28;20032;-73
2022/04/05 00:43:40;;;;;;;11.95;6.72;;;;;;;5.94;59.13;93680.53;5105871;28;20087;-73
2022/04/05 00:46:06;;;;;;;12.15;5.82;;;;;;;5.88;59.45;93686.97;5105785;28;20026;-72
2022/04/05 00:48:57;;;;;;;10.68;5.85;;;;;;;5.83;59.76;93679.91;5105728;28;20298;-72
2022/04/05 00:51:24;;;;;;;13.50;6.47;;;;;;;5.77;59.86;93681.06;5105763;28;20264;-71
2022/04/05 00:53:52;;;;;;;10.68;6.28;;;;;;;5.74;60.09;93679.78;5104458;28;20375;-73
2022/04/05 00:56:20;;;;;;;13.50;6.72;;;;;;;5.68;60.09;93680.91;5105624;28;20043;-72
2022/04/05 00:58:50;;;;;;;12.60;5.93;;;;;;;5.68;60.31;93673.00;5105563;28;20024;-73
2022/04/05 01:01:18;;;;;;;12.32;5.93;;;;;;;5.66;60.44;93669.84;5105449;28;20225;-73
2022/04/05 01:03:49;;;;;;;12.02;6.70;;;;;;;5.61;60.12;93667.25;5105544;28;20035;-73
2022/04/05 01:06:38;;;;;;;20.40;6.90;;;;;;;5.54;60.36;93674.78;5105484;28;20057;-73
2022/04/05 01:09:03;;;;;;;12.60;6.32;;;;;;;5.52;60.62;93667.13;5105311;28;20024;-72
2022/04/05 01:11:30;;;;;;;11.07;5.85;;;;;;;5.47;60.77;93667.19;5105282;28;20073;-72
2022/04/05 01:13:55;;;;;;;10.85;6.15;;;;;;;5.43;60.93;93661.69;5105250;28;20028;-72
2022/04/05 01:16:21;;;;;;;14.27;6.70;;;;;;;5.36;61.02;93669.19;5105274;28;20405;-72
2022/04/05 01:18:48;;;;;;;13.63;6.05;;;;;;;5.28;60.92;93669.81;5104949;28;20241;-72
2022/04/05 01:21:14;;;;;;;13.73;6.90;;;;;;;5.17;61.18;93668.34;5105150;28;20310;-72
2022/04/05 01:24:02;;;;;;;10.68;5.97;;;;;;;5.12;61.30;93671.06;5104965;28;20320;-72
2022/04/05 01:26:27;;;;;;;10.25;6.38;;;;;;;5.01;61.89;93678.34;5104980;28;20028;-73
2022/04/05 01:28:53;;;;;;;13.15;6.68;;;;;;;5.04;61.77;93677.78;5104821;28;20026;-74
2022/04/05 01:31:18;;;;;;;11.30;6.20;;;;;;;4.99;61.79;93667.28;5104711;28;20024;-73
2022/04/05 01:33:44;;;;;;;14.15;6.25;;;;;;;4.91;61.85;93678.47;5104682;28;20031;-73
2022/04/05 01:36:21;;;;;;;13.05;6.43;;;;;;;4.91;62.30;93678.47;5104891;28;20024;-73
2022/04/05 01:38:47;;;;;;;11.25;6.15;;;;;;;4.85;62.59;93677.72;5104796;28;20016;-73
2022/04/05 01:41:12;;;;;;;15.38;6.95;;;;;;;4.86;63.14;93673.22;5104656;28;20035;-73
2022/04/05 01:43:38;;;;;;;16.42;7.82;;;;;;;4.86;63.30;93670.59;5104654;28;20077;-73
2022/04/05 01:46:04;;;;;;;12.30;6.93;;;;;;;4.85;63.33;93684.88;5104153;28;20272;-73
2022/04/05 01:48:29;;;;;;;10.77;5.88;;;;;;;4.83;63.17;93674.59;5104333;28;20028;-73
2022/04/05 01:50:55;;;;;;;11.95;6.40;;;;;;;4.79;63.12;93679.63;5104520;28;20031;-73
2022/04/05 01:53:20;;;;;;;11.85;6.57;;;;;;;4.74;62.95;93665.69;5104511;28;20256;-73
2022/04/05 01:55:46;;;;;;;10.32;5.65;;;;;;;4.75;63.04;93673.34;5104217;28;20067;-73
2022/04/05 01:58:11;;;;;;;11.57;6.78;;;;;;;4.69;63.08;93665.75;5104372;28;20028;-74
2022/04/05 02:00:36;;;;;;;13.98;6.30;;;;;;;4.68;63.02;93662.34;5104501;28;20019;-74
2022/04/05 02:03:02;;;;;;;11.65;5.85;;;;;;;4.67;62.86;93666.03;5104457;28;20309;-73
2022/04/05 02:05:27;;;;;;;13.65;6.57;;;;;;;4.65;62.87;93662.88;5104279;28;20321;-73
2022/04/05 02:07:53;;;;;;;9.48;5.60;;;;;;;4.61;63.06;93656.59;5104167;28;20317;-73
2022/04/05 02:10:18;;;;;;;9.05;5.65;;;;;;;4.57;62.87;93652.94;5103993;28;20100;-73
2022/04/05 02:12:44;;;;;;;10.23;5.65;;;;;;;4.57;62.66;93653.72;5104127;28;20032;-73
2022/04/05 02:15:10;;;;;;;10.82;5.97;;;;;;;4.56;62.45;93649.53;5104096;28;20023;-73
2022/04/05 02:17:35;;;;;;;10.80;6.65;;;;;;;4.56;62.38;93644.25;5104067;28;20057;-74
2022/04/05 02:20:01;;;;;;;15.05;6.93;;;;;;;4.52;62.61;93637.94;5103902;28;20028;-73
2022/04/05 02:22:26;;;;;;;13.10;7.00;;;;;;;4.51;62.76;93639.00;5103989;28;20314;-73
2022/04/05 02:24:52;;;;;;;11.35;6.45;;;;;;;4.52;62.57;93632.69;5103859;28;20254;-73
2022/04/05 02:27:18;;;;;;;11.63;5.75;;;;;;;4.54;62.63;93635.81;5103885;28;20027;-73
2022/04/05 02:29:44;;;;;;;12.32;6.20;;;;;;;4.53;62.61;93630.81;5103813;28;20028;-73
2022/04/05 02:32:09;;;;;;;10.73;6.20;;;;;;;4.47;62.95;93634.56;5103652;28;20024;-73
2022/04/05 02:34:35;;;;;;;9.80;6.10;;;;;;;4.48;62.99;93630.84;5103853;28;20172;-74
2022/04/05 02:37:00;;;;;;;12.25;5.97;;;;;;;4.47;63.09;93630.06;5103776;28;20081;-73
2022/04/05 02:39:26;;;;;;;14.50;5.75;;;;;;;4.47;63.21;93624.78;5103543;28;20031;-73
2022/04/05 02:41:51;;;;;;;13.90;6.38;;;;;;;4.43;63.51;93621.16;5103856;28;20047;-73
2022/04/05 02:44:17;;;;;;;9.77;5.93;;;;;;;4.41;63.37;93624.06;5102340;28;20099;-73
2022/04/05 02:46:42;;;;;;;11.48;6.63;;;;;;;4.35;63.48;93611.97;5103485;28;20070;-73
2022/04/05 02:49:09;;;;;;;11.18;5.55;;;;;;;4.36;63.46;93624.13;5103461;28;20024;-73
2022/04/05 02:51:34;;;;;;;9.75;5.03;;;;;;;4.30;63.77;93608.63;5103610;28;20023;-73
2022/04/05 02:54:00;;;;;;;13.73;5.40;;;;;;;4.25;63.61;93616.56;5103348;28;20024;-74
2022/04/05 02:56:25;;;;;;;8.68;4.60;;;;;;;4.28;63.66;93616.03;5103181;28;20048;-73
2022/04/05 02:58:51;;;;;;;8.35;4.90;;;;;;;4.22;63.80;93613.44;5103088;28;20113;-74
2022/04/05 03:01:16;;;;;;;8.73;4.35;;;;;;;4.18;63.96;93612.41;5103389;28;20074;-72
2022/04/05 03:03:42;;;;;;;7.60;5.13;;;;;;;4.17;64.01;93615.31;5102042;28;20035;-73
2022/04/05 03:06:07;;;;;;;9.43;5.50;;;;;;;4.16;64.20;93611.91;5103449;28;20031;-73
2022/04/05 03:08:33;;;;;;;12.35;4.78;;;;;;;4.14;64.18;93606.13;5102964;28;20024;-73
2022/04/05 03:10:58;;;;;;;8.77;4.75;;;;;;;4.15;63.88;93607.72;5103293;28;20058;-73
2022/04/05 03:13:24;;;;;;;12.50;5.38;;;;;;;4.16;63.98;93608.50;5103108;28;20277;-73
2022/04/05 03:15:49;;;;;;;9.25;5.13;;;;;;;4.12;64.26;93607.47;5103194;28;20214;-73
2022/04/05 03:18:15;;;;;;;7.65;4.47;;;;;;;4.07;64.40;93602.22;5103063;28;20251;-73
2022/04/05 03:20:40;;;;;;;8.98;4.97;;;;;;;4.07;64.41;93603.03;5103044;28;20038;-73
2022/04/05 03:23:07;;;;;;;8.48;4.15;;;;;;;4.06;64.33;93596.19;5103150;28;20027;-73
2022/04/05 03:25:32;;;;;;;6.97;4.38;;;;;;;4.05;64.26;93597.25;5102838;28;20091;-73
2022/04/05 03:28:02;;;;;;;10.57;4.47;;;;;;;4.00;64.59;93594.66;5102703;28;20106;-73
2022/04/05 03:30:28;;;;;;;11.70;6.55;;;;;;;3.92;64.70;93592.63;5103091;28;20061;-73
2022/04/05 03:32:54;;;;;;;9.68;4.95;;;;;;;3.92;64.73;93589.97;5102884;28;20095;-73
2022/04/05 03:35:20;;;;;;;8.23;4.95;;;;;;;3.89;64.71;93593.97;5102896;28;20016;-72
2022/04/05 03:37:45;;;;;;;11.00;5.40;;;;;;;3.90;64.87;93597.38;5102559;28;20057;-72
2022/04/05 03:40:14;;;;;;;12.10;5.82;;;;;;;3.89;65.05;93599.25;5103000;28;20016;-72
2022/04/05 03:42:40;;;;;;;11.27;5.95;;;;;;;3.89;65.07;93601.06;5102971;28;20221;-72
2022/04/05 03:45:07;;;;;;;16.77;5.40;;;;;;;3.88;65.05;93612.69;5102829;28;20024;-72
2022/04/05 03:47:32;;;;;;;11.15;4.88;;;;;;;3.84;64.60;93596.63;5102631;28;20430;-72
2022/04/05 03:49:58;;;;;;;11.98;5.05;;;;;;;3.73;64.51;93597.81;5102518;28;20032;-72
2022/04/05 03:52:24;;;;;;;14.38;4.85;;;;;;;3.64;64.90;93602.06;5102621;28;20048;-73
2022/04/05 03:54:49;;;;;;;9.23;4.53;;;;;;;3.63;64.71;93601.28;5102482;28;20069;-72
2022/04/05 03:57:15;;;;;;;12.30;5.45;;;;;;;3.60;65.01;93605.28;5102792;28;20046;-72
2022/04/05 03:59:40;;;;;;;9.20;4.90;;;;;;;3.60;65.04;93601.84;5102637;28;20042;-72
2022/04/05 04:02:06;;;;;;;8.95;4.97;;;;;;;3.61;65.20;93592.88;5102694;28;20048;-72
2022/04/05 04:04:31;;;;;;;9.82;5.05;;;;;;;3.60;65.17;93596.56;5102551;28;20016;-72
2022/04/05 04:06:57;;;;;;;16.80;4.75;;;;;;;3.59;65.36;93595.78;5102447;28;20036;-72
2022/04/05 04:09:22;;;;;;;7.38;4.22;;;;;;;3.60;65.25;93596.56;5103922;28;20095;-72
2022/04/05 04:11:48;;;;;;;9.30;4.70;;;;;;;3.63;65.40;93606.56;5105350;28;20031;-72
2022/04/05 04:14:14;;;;;;;8.57;4.65;;;;;;;3.66;65.35;93598.09;5106258;28;20026;-73
2022/04/05 04:16:39;;;;;;;9.07;4.65;;;;;;;3.64;65.41;93602.06;5106376;28;20019;-73
2022/04/05 04:19:05;;;;;;;9.07;5.15;;;;;;;3.64;65.40;93602.84;5106311;28;20020;-72
2022/04/05 04:21:31;;;;;;;8.68;5.75;;;;;;;3.65;65.56;93604.44;5106138;28;20035;-72
2022/04/05 04:23:56;;;;;;;12.38;5.38;;;;;;;3.67;65.72;93612.88;5106111;28;20020;-72
2022/04/05 04:26:22;;;;;;;12.27;5.85;;;;;;;3.70;65.55;93606.25;5106217;28;20024;-73
2022/04/05 04:28:51;;;;;;;10.30;5.53;;;;;;;3.70;65.53;93595.69;5105999;28;20031;-73
2022/04/05 04:31:17;;;;;;;12.15;5.53;;;;;;;3.71;65.49;93599.94;5106038;28;20019;-72
2022/04/05 04:33:42;;;;;;;12.25;6.25;;;;;;;3.71;65.83;93613.88;5105953;28;20260;-72
2022/04/05 04:36:08;;;;;;;11.80;5.50;;;;;;;3.74;65.88;93613.31;5106008;28;20274;-72
2022/04/05 04:38:33;;;;;;;15.40;6.20;;;;;;;3.76;65.96;93613.81;5105759;28;20210;-72
2022/04/05 04:40:59;;;;;;;15.77;5.85;;;;;;;3.81;66.18;93613.81;5105518;28;20024;-72
2022/04/05 04:43:27;;;;;;;17.77;6.40;;;;;;;3.80;66.02;93617.50;5105730;28;20040;-73
2022/04/05 04:45:53;;;;;;;10.27;6.57;;;;;;;3.71;66.13;93616.53;5105882;28;20039;-72
2022/04/05 04:48:19;;;;;;;25.02;6.80;;;;;;;3.73;65.87;93619.66;5105577;28;20279;-72
2022/04/05 04:50:49;;;;;;;17.27;6.68;;;;;;;3.70;66.16;93611.50;5105432;28;20034;-73
2022/04/05 04:53:14;;;;;;;13.88;7.85;;;;;;;3.68;66.14;93624.19;5105843;28;20047;-72
2022/04/05 04:55:40;;;;;;;17.00;7.20;;;;;;;3.65;66.28;93620.25;5105642;28;20243;-73
2022/04/05 04:58:05;;;;;;;13.13;6.45;;;;;;;3.63;66.35;93618.97;5105514;28;20065;-72
2022/04/05 05:00:30;;;;;;;11.98;5.93;;;;;;;3.66;66.78;93627.09;5105290;28;20242;-73
2022/04/05 05:02:56;;;;;;;12.15;6.72;;;;;;;3.65;66.63;93620.25;5105391;28;20051;-73
2022/04/05 05:05:22;;;;;;;13.55;7.07;;;;;;;3.74;66.59;93629.13;5105314;28;20024;-73
2022/04/05 05:07:49;;;;;;;14.07;6.53;;;;;;;3.79;66.48;93621.19;5105183;28;20090;-73
2022/04/05 05:10:16;;;;;;;14.90;6.63;;;;;;;3.84;66.52;93616.94;5105156;28;20348;-73
2022/04/05 05:12:42;;;;;;;11.52;6.82;;;;;;;3.86;67.14;93614.81;5105292;28;20024;-73
2022/04/05 05:15:08;;;;;;;11.57;6.57;;;;;;;3.89;66.16;93612.44;5105358;28;20023;-72
2022/04/05 05:17:35;;;;;;;28.65;7.38;;;;;;;3.90;66.06;93616.63;5104977;28;20024;-73
2022/04/05 05:20:02;;;;;;;18.65;7.53;;;;;;;3.92;66.10;93625.03;5104411;28;20027;-73
2022/04/05 05:22:27;;;;;;;31.10;9.35;;;;;;;3.92;66.22;93626.91;5104428;28;20031;-72
2022/04/05 05:24:53;;;;;;;23.77;9.68;;;;;;;3.80;66.34;93633.31;5104758;28;20028;-72
2022/04/05 05:27:18;;;;;;;19.17;8.52;;;;;;;3.74;66.71;93629.13;5104913;28;20036;-72
2022/04/05 05:29:44;;;;;;;17.77;8.95;;;;;;;3.73;67.16;93627.56;5104741;28;20264;-72
2022/04/05 05:32:09;;;;;;;18.02;8.63;;;;;;;3.74;67.31;93639.69;5104413;28;20020;-71
2022/04/05 05:34:34;;;;;;;22.23;8.88;;;;;;;3.76;67.28;93636.78;5104440;28;20028;-72
2022/04/05 05:37:00;;;;;;;17.50;9.07;;;;;;;3.85;67.09;93635.13;5104626;28;20024;-72
2022/04/05 05:39:26;;;;;;;24.40;10.05;;;;;;;3.94;66.97;93633.47;5104729;28;20091;-72
2022/04/05 05:41:51;;;;;;;23.23;10.20;;;;;;;3.98;66.56;93642.41;5104663;28;20077;-73
2022/04/05 05:44:17;;;;;;;28.25;11.77;;;;;;;4.04;66.17;93637.88;5104475;28;20024;-73
2022/04/05 05:46:42;;;;;;;30.42;9.70;;;;;;;4.12;65.83;93641.75;5104293;28;20035;-73
2022/04/05 05:49:08;;;;;;;23.98;10.50;;;;;;;4.09;65.85;93637.84;5104375;28;20195;-73
2022/04/05 05:51:33;;;;;;;29.60;11.27;;;;;;;4.11;66.24;93646.25;5104209;28;20020;-73
2022/04/05 05:53:59;;;;;;;24.30;10.40;;;;;;;4.10;66.57;93639.41;5103995;28;20024;-73
2022/04/05 05:56:25;;;;;;;31.45;10.82;;;;;;;4.17;66.41;93645.16;5104201;28;20345;-73
2022/04/05 05:58:51;;;;;;;31.60;12.00;;;;;;;4.18;66.38;93643.28;5104389;28;20020;-73
2022/04/05 06:01:17;;;;;;;29.52;10.57;;;;;;;4.22;66.18;93641.66;5104121;28;20046;-72
2022/04/05 06:03:42;;;;;;;26.33;10.70;;;;;;;4.30;65.81;93643.72;5104290;28;20024;-73
2022/04/05 06:06:09;;;;;;;24.48;11.75;;;;;;;4.34;65.69;93634.16;5104308;28;20058;-74
2022/04/05 06:08:34;;;;;;;34.90;11.85;;;;;;;4.39;65.38;93639.38;5104040;28;20093;-73
2022/04/05 06:11:00;;;;;;;25.77;11.82;;;;;;;4.40;65.47;93634.91;5103898;28;20318;-73
2022/04/05 06:13:25;;;;;;;32.60;11.93;;;;;;;4.46;65.78;93631.16;5103802;28;20020;-73
2022/04/05 06:15:51;;;;;;;30.48;12.20;;;;;;;4.62;65.87;93639.69;5103880;28;20048;-74
2022/04/05 06:18:16;;;;;;;29.45;13.27;;;;;;;4.77;65.93;93633.47;5103762;28;20016;-74
2022/04/05 06:20:41;;;;;;;30.23;12.00;;;;;;;4.91;65.35;93633.56;5103384;28;20310;-74
2022/04/05 06:23:07;;;;;;;26.40;13.13;;;;;;;5.05;64.25;93625.72;5103898;28;20027;-75
2022/04/05 06:25:35;;;;;;;23.02;12.20;;;;;;;5.09;63.80;93630.16;5103662;28;20019;-73
2022/04/05 06:28:04;;;;;;;20.25;12.00;;;;;;;5.22;63.23;93628.69;5103854;28;20032;-73
2022/04/05 06:30:32;;;;;;;33.38;12.25;;;;;;;5.26;63.55;93634.97;5103632;28;20020;-73
2022/04/05 06:33:08;;;;;;;31.17;12.13;;;;;;;5.37;62.47;93631.13;5103280;28;20062;-74
2022/04/05 06:35:39;;;;;;;23.70;11.50;;;;;;;5.40;62.26;93625.25;5103454;28;20047;-74
2022/04/05 06:38:04;;;;;;;22.27;10.43;;;;;;;5.46;61.93;93631.25;5103937;28;20048;-74
2022/04/05 06:40:30;;;;;;;17.83;9.57;;;;;;;5.56;61.47;93630.34;5103362;28;20307;-74
2022/04/05 06:42:55;;;;;;;31.67;11.40;;;;;;;5.65;61.63;93635.75;5103203;28;20028;-74
2022/04/05 06:45:22;;;;;;;18.08;9.48;;;;;;;5.73;61.78;93632.47;5103278;28;20034;-74
2022/04/05 06:47:47;;;;;;;27.25;10.52;;;;;;;5.84;61.62;93620.63;5103459;28;20028;-74
2022/04/05 06:50:16;;;;;;;19.77;9.95;;;;;;;5.89;62.81;93619.78;5105433;28;20020;-88
2022/04/05 06:52:42;;;;;;;20.67;9.52;;;;;;;6.03;60.91;93623.28;5104301;28;20387;-91
2022/04/05 06:55:11;;;;;;;26.98;9.93;;;;;;;6.13;61.23;93622.34;5104669;28;20047;-91
2022/04/05 06:57:37;;;;;;;29.08;10.48;;;;;;;6.21;60.61;93627.75;5104728;28;20087;-80
2022/04/05 07:00:05;;;;;;;27.77;10.82;;;;;;;6.33;60.38;93623.81;5104124;28;20287;-78
2022/04/05 07:02:30;;;;;;;25.58;9.50;;;;;;;6.42;59.43;93622.09;5103856;28;20020;-79
2022/04/05 07:04:56;;;;;;;24.08;9.50;;;;;;;6.47;58.74;93621.97;5103596;28;20027;-78
2022/04/05 07:07:21;;;;;;;26.13;9.88;;;;;;;6.58;58.70;93618.09;5103779;28;20024;-82
2022/04/05 07:09:47;;;;;;;26.90;10.50;;;;;;;6.67;58.59;93620.06;5102810;28;20225;-80
2022/04/05 07:12:12;;;;;;;23.88;10.55;;;;;;;6.78;58.19;93626.75;5103637;28;20027;-81
2022/04/05 07:14:39;;;;;;;21.88;9.10;;;;;;;6.87;57.43;93619.66;5103928;28;20027;-83
2022/04/05 07:17:05;;;;;;;18.15;8.15;;;;;;;6.96;57.01;93612.59;5103613;28;20024;-81
2022/04/05 07:19:30;;;;;;;28.38;8.90;;;;;;;7.08;56.88;93616.59;5103720;28;20023;-81
2022/04/05 07:21:56;;;;;;;15.43;7.25;;;;;;;7.19;55.80;93608.16;5103589;28;20026;-85
2022/04/05 07:24:21;;;;;;;15.52;8.10;;;;;;;7.30;55.35;93606.06;5103776;28;20099;-84
2022/04/05 07:26:47;;;;;;;19.02;7.10;;;;;;;7.43;55.73;93612.44;5103517;28;20031;-82
2022/04/05 07:29:12;;;;;;;17.27;5.68;;;;;;;7.49;55.55;93611.22;5103817;28;20020;-80
2022/04/05 07:31:38;;;;;;;8.05;4.10;;;;;;;7.48;53.85;93608.88;5101626;28;20031;-79
2022/04/05 07:34:04;;;;;;;10.30;4.10;;;;;;;7.51;52.78;93613.56;5103467;28;20035;-79
2022/04/05 07:36:32;;;;;;;15.90;4.03;;;;;;;7.58;52.28;93614.72;5103234;28;20023;-78
2022/04/05 07:38:57;;;;;;;12.13;5.07;;;;;;;7.59;51.99;93610.19;5103325;28;20229;-77
2022/04/05 07:41:23;;;;;;;13.15;4.72;;;;;;;7.62;52.51;93606.97;5103029;28;20047;-79
2022/04/05 07:43:49;;;;;;;11.50;5.18;;;;;;;7.54;53.39;93610.31;5103738;28;20092;-78
2022/04/05 07:46:15;;;;;;;14.40;7.20;;;;;;;7.64;53.70;93607.44;5107470;28;20020;-80
2022/04/05 07:48:41;;;;;;;22.08;6.50;;;;;;;7.74;53.74;93607.22;5107070;28;20028;-81
2022/04/05 07:51:07;;;;;;;15.23;5.78;;;;;;;7.86;53.41;93608.53;5106869;28;20026;-80
2022/04/05 07:53:33;;;;;;;21.58;6.93;;;;;;;7.84;52.70;93606.97;5107090;28;20091;-82
2022/04/05 07:55:59;;;;;;;11.00;5.85;;;;;;;7.75;53.23;93608.75;5106813;28;20044;-80
2022/04/05 07:58:25;;;;;;;14.98;5.72;;;;;;;7.88;52.93;93617.00;5106718;28;20333;-80
2022/04/05 08:00:51;;;;;;;9.13;5.55;;;;;;;7.98;52.72;93606.13;5107227;28;20016;-78
2022/04/05 08:03:17;;;;;;;19.02;6.15;;;;;;;7.97;52.38;93604.56;5106595;28;20122;-81
2022/04/05 08:05:43;;;;;;;12.60;5.95;;;;;;;8.17;52.70;93613.91;5106645;28;20319;-80
2022/04/05 08:08:09;;;;;;;15.00;5.50;;;;;;;8.30;51.77;93606.94;5106766;28;20078;-79
2022/04/05 08:10:34;;;;;;;17.50;6.35;;;;;;;8.46;50.70;93610.78;5106600;27;20087;-81
2022/04/05 08:13:00;;;;;;;14.57;6.80;;;;;;;8.53;50.04;93603.19;5106496;28;20027;-80
2022/04/05 08:15:26;;;;;;;12.88;6.82;;;;;;;8.56;50.79;93596.47;5106377;28;20027;-79
2022/04/05 08:17:52;;;;;;;13.77;6.22;;;;;;;8.62;50.66;93603.22;5106539;28;20020;-79
2022/04/05 08:20:19;;;;;;;21.27;6.78;;;;;;;8.72;50.48;93602.16;5105252;28;20031;-77
2022/04/05 08:22:47;;;;;;;13.77;5.63;;;;;;;8.75;50.24;93610.31;5106311;28;20260;-78
2022/04/05 08:25:15;;;;;;;12.70;5.90;;;;;;;8.64;50.62;93599.16;5105063;28;20093;-78
2022/04/05 08:27:46;;;;;;;18.92;6.15;;;;;;;8.81;50.29;93595.00;5106059;28;20382;-81
2022/04/05 08:30:15;;;;;;;9.82;6.13;;;;;;;8.86;49.54;93591.44;5107607;28;20040;-81
2022/04/05 08:32:42;;;;;;;13.52;5.70;;;;;;;8.94;50.05;93591.44;5105323;28;20261;-79
2022/04/05 08:35:16;;;;;;;12.05;6.53;;;;;;;8.96;49.88;93591.16;5106318;28;20218;-78
2022/04/05 08:37:42;;;;;;;14.52;6.88;;;;;;;8.96;49.15;93583.94;5106317;28;20266;-80
2022/04/05 08:40:09;;;;;;;18.58;6.57;;;;;;;9.12;49.15;93581.66;5105811;28;20214;-78
2022/04/05 08:42:38;;;;;;;12.82;5.50;;;;;;;9.28;48.30;93578.53;5106076;28;20203;-78
2022/04/05 08:45:10;;;;;;;22.40;6.20;;;;;;;9.46;47.85;93585.41;5106031;28;20027;-78
2022/04/05 08:47:36;;;;;;;18.43;7.57;;;;;;;9.60;46.24;93577.28;5105860;28;20032;-80
2022/04/05 08:50:03;;;;;;;13.52;5.18;;;;;;;9.67;44.58;93572.28;5104681;28;20316;-78
2022/04/05 08:52:28;;;;;;;10.27;5.15;;;;;;;9.58;44.25;93577.59;5105751;28;20047;-80
2022/04/05 08:54:55;;;;;;;10.98;5.15;;;;;;;9.64;44.68;93565.69;5105317;28;20226;-80
2022/04/05 08:57:21;;;;;;;13.93;4.65;;;;;;;9.75;43.72;93560.06;5105868;28;20020;-78
2022/04/05 08:59:47;;;;;;;8.50;4.50;;;;;;;9.79;42.34;93548.50;5105799;28;20341;-79
2022/04/05 09:02:14;;;;;;;14.45;5.30;;;;;;;9.83;43.14;93553.94;5105830;28;20281;-80
2022/04/05 09:04:40;;;;;;;9.48;4.82;;;;;;;9.97;42.46;93551.13;5105552;28;20244;-78
2022/04/05 09:07:23;;;;;;;12.07;4.35;;;;;;;10.02;41.40;93543.75;5105372;28;20030;-79
2022/04/05 09:10:06;;;;;;;10.57;5.05;;;;;;;10.10;42.59;93547.50;5105405;28;20016;-78
2022/04/05 09:12:42;;;;;;;8.57;5.43;;;;;;;10.32;42.50;93548.38;5105461;28;20028;-77
2022/04/05 09:15:10;;;;;;;17.83;5.18;;;;;;;10.41;39.52;93546.50;5105308;28;20027;-78
2022/04/05 09:17:40;;;;;;;8.48;3.85;;;;;;;10.50;39.82;93533.94;5105212;28;20028;-79
2022/04/05 09:20:06;;;;;;;6.47;3.53;;;;;;;10.58;37.72;93543.78;5105339;28;20314;-78
2022/04/05 09:22:35;;;;;;;9.25;4.72;;;;;;;10.55;37.78;93535.63;5105292;28;20034;-78
2022/04/05 09:25:10;;;;;;;10.43;4.60;;;;;;;10.58;37.54;93529.66;5105187;28;20038;-82
2022/04/05 09:27:49;;;;;;;8.40;4.20;;;;;;;10.61;37.37;93529.78;5105123;28;20207;-78
2022/04/05 09:30:36;;;;;;;8.20;3.92;;;;;;;10.60;34.70;93533.56;5104952;28;20095;-77
2022/04/05 09:33:04;;;;;;;9.30;3.20;;;;;;;10.56;34.28;93532.66;5104661;28;20027;-79
2022/04/05 09:35:39;;;;;;;6.28;3.00;;;;;;;10.75;33.16;93531.47;5105015;28;20317;-80
2022/04/05 09:38:16;;;;;;;5.28;3.20;;;;;;;10.90;33.78;93525.56;5105091;28;20016;-80
2022/04/05 09:40:43;;;;;;;8.93;4.47;;;;;;;11.02;36.00;93528.31;5104166;28;20023;-82
2022/04/05 09:43:14;;;;;;;10.02;4.47;;;;;;;11.12;36.83;93518.38;5104815;28;20031;-80
2022/04/05 09:45:50;;;;;;;11.50;4.82;;;;;;;11.15;37.76;93515.81;5105079;28;20019;-78
2022/04/05 09:48:19;;;;;;;11.40;5.05;;;;;;;11.34;38.10;93518.06;5104456;28;20032;-80
2022/04/05 09:51:06;;;;;;;10.18;4.50;;;;;;;11.55;38.77;93512.72;5104642;28;20023;-80
2022/04/05 09:53:38;;;;;;;12.77;5.38;;;;;;;11.77;38.38;93508.91;5105106;28;20054;-87
2022/04/05 09:56:06;;;;;;;13.18;4.90;;;;;;;11.89;37.67;93502.88;5104685;28;20125;-82
2022/04/05 09:58:32;;;;;;;14.65;4.85;;;;;;;12.06;36.82;93504.56;5104951;28;20321;-80
2022/04/05 10:01:08;;;;;;;12.93;5.13;;;;;;;12.20;37.22;93502.38;5104471;28;20034;-80
2022/04/05 10:03:39;;;;;;;10.40;4.53;;;;;;;12.36;37.17;93497.16;5104024;28;20352;-77
2022/04/05 10:06:05;;;;;;;10.07;5.00;;;;;;;12.50;37.49;93490.72;5104298;28;20277;-77
2022/04/05 10:08:32;;;;;;;7.30;4.57;;;;;;;12.65;36.88;93484.69;5103809;28;20031;-76
2022/04/05 10:10:59;;;;;;;11.98;4.57;;;;;;;12.72;34.75;93489.47;5104217;28;20023;-76
2022/04/05 10:13:24;;;;;;;10.45;4.60;;;;;;;12.78;35.83;93480.91;5104143;28;20035;-76
2022/04/05 10:15:51;;;;;;;9.75;5.00;;;;;;;12.91;35.99;93478.22;5103146;28;20028;-77
2022/04/05 10:18:20;;;;;;;7.93;4.85;;;;;;;13.00;35.91;93474.28;5104197;28;20222;-77
2022/04/05 10:20:49;;;;;;;15.93;4.90;;;;;;;13.14;36.05;93475.84;5104004;28;20099;-76
2022/04/05 10:23:18;;;;;;;15.93;4.25;;;;;;;13.11;34.46;93468.47;5104058;28;20073;-77
2022/04/05 10:25:47;;;;;;;11.70;4.80;;;;;;;13.14;34.66;93460.56;5103944;28;20077;-77
2022/04/05 10:28:18;;;;;;;69.18;11.57;;;;;;;13.21;34.58;93458.09;5102556;28;20282;-80
2022/04/05 10:30:50;;;;;;;18.65;4.78;;;;;;;13.33;34.21;93467.22;5104001;28;20095;-78
2022/04/05 10:33:34;;;;;;;11.32;6.03;;;;;;;13.17;32.52;93459.91;5103743;28;20047;-78
2022/04/05 10:36:00;;;;;;;10.23;4.38;;;;;;;12.89;34.25;93459.06;5103663;28;20030;-80
2022/04/05 10:38:28;;;;;;;10.57;4.65;;;;;;;12.91;34.29;93460.28;5103441;28;20072;-79
2022/04/05 10:41:14;;;;;;;7.55;4.32;;;;;;;12.95;33.76;93453.16;5103609;28;20255;-79
2022/04/05 10:43:40;;;;;;;7.13;4.13;;;;;;;13.05;34.01;93451.91;5103754;28;20020;-80
2022/04/05 10:46:07;;;;;;;7.60;4.07;;;;;;;13.15;33.57;93446.09;5103512;28;20087;-79
2022/04/05 10:48:32;;;;;;;32.55;5.68;;;;;;;13.20;32.52;93448.50;5103159;28;20278;-77
2022/04/05 10:51:00;;;;;;;15.82;4.57;;;;;;;13.03;33.12;93438.84;5103040;28;20020;-78
2022/04/05 10:53:35;;;;;;;8.13;4.22;;;;;;;13.15;34.28;93442.63;5103435;28;20027;-78
2022/04/05 10:56:03;;;;;;;8.50;4.30;;;;;;;13.39;34.60;93439.09;5103126;28;20050;-77
2022/04/05 10:58:30;;;;;;;10.30;4.38;;;;;;;13.62;33.01;93434.78;5103278;28;20278;-77
2022/04/05 11:01:16;;;;;;;8.23;4.55;;;;;;;13.76;32.60;93428.22;5105253;28;20054;-78
2022/04/05 11:03:44;;;;;;;10.10;4.57;;;;;;;13.88;32.71;93424.72;5104842;28;20024;-79
2022/04/05 11:06:10;;;;;;;17.15;4.72;;;;;;;14.08;33.25;93421.00;5104911;28;20031;-78
2022/04/05 11:08:36;;;;;;;36.92;7.63;;;;;;;14.26;32.83;93413.41;5104215;28;20038;-78
2022/04/05 11:11:05;;;;;;;12.10;4.25;;;;;;;14.44;31.58;93413.84;5103485;28;20024;-78
2022/04/05 11:13:44;;;;;;;12.43;4.70;;;;;;;14.59;30.23;93406.91;5105040;28;20047;-78
2022/04/05 11:16:11;;;;;;;14.35;4.57;;;;;;;14.54;31.08;93399.88;5104511;28;20036;-77
2022/04/05 11:18:38;;;;;;;8.80;4.30;;;;;;;14.57;30.30;93404.59;5103605;28;20016;-78
2022/04/05 11:21:09;;;;;;;15.65;4.38;;;;;;;14.50;30.37;93415.13;5104946;28;20024;-78
2022/04/05 11:23:53;;;;;;;6.57;3.72;;;;;;;14.30;30.43;93408.91;5103068;28;20217;-77
2022/04/05 11:26:24;;;;;;;9.07;3.88;;;;;;;14.13;30.89;93396.66;5102968;28;20036;-77
2022/04/05 11:28:50;;;;;;;14.15;3.70;;;;;;;13.88;32.54;93384.53;5102949;28;20035;-77
2022/04/05 11:31:39;;;;;;;7.70;3.70;;;;;;;13.91;33.48;93389.22;5102808;28;20087;-79
2022/04/05 11:34:34;;;;;;;10.65;4.13;;;;;;;13.94;30.89;93383.94;5102765;28;20312;-77